createdAt,value
2022-09-12T00:00:34.912Z,96.55
2022-09-12T00:06:02.271Z,96.50
2022-09-12T00:11:11.199Z,96.62
2022-09-12T00:16:20.770Z,96.41
2022-09-12T00:21:27.813Z,96.13
2022-09-12T00:38:07.238Z,95.92
2022-09-12T00:43:17.097Z,96.37
2022-09-12T00:48:33.611Z,96.40
2022-09-12T00:53:43.522Z,96.57
2022-09-12T00:59:11.194Z,96.96
2022-09-12T01:04:31.502Z,97.44
2022-09-12T01:09:54.363Z,97.90
2022-09-12T01:15:03.612Z,98.07
2022-09-12T01:20:42.641Z,98.05
2022-09-12T01:26:51.521Z,97.49
2022-09-12T01:32:18.406Z,97.13
2022-09-12T01:38:22.128Z,96.32
2022-09-12T01:43:55.137Z,95.74
2022-09-12T01:49:41.739Z,95.42
2022-09-12T01:55:26.807Z,95.52
2022-09-12T02:01:00.794Z,95.77
2022-09-12T02:06:54.169Z,95.59
2022-09-12T02:12:48.667Z,95.38
2022-09-12T02:18:42.936Z,95.40
2022-09-12T02:24:08.913Z,95.54
2022-09-12T02:29:49.968Z,95.60
2022-09-12T02:35:01.904Z,95.87
2022-09-12T02:40:12.704Z,95.92
2022-09-12T02:45:24.926Z,96.14
2022-09-12T02:50:36.712Z,96.19
2022-09-12T02:55:46.574Z,96.29
2022-09-12T03:01:26.216Z,96.82
2022-09-12T03:06:59.866Z,97.08
2022-09-12T03:12:36.445Z,97.17
2022-09-12T03:18:17.882Z,98.01
2022-09-12T03:24:06.747Z,97.88
2022-09-12T03:29:16.238Z,98.28
2022-09-12T03:34:24.917Z,97.88
2022-09-12T03:39:31.831Z,98.30
2022-09-12T03:44:37.162Z,98.22
2022-09-12T03:49:43.976Z,98.45
2022-09-12T03:54:49.276Z,98.61
2022-09-12T03:59:56.154Z,98.70
2022-09-12T04:05:03.164Z,98.90
2022-09-12T04:10:10.782Z,98.85
2022-09-12T04:15:17.661Z,99.25
2022-09-12T04:20:24.693Z,99.03
2022-09-12T04:25:31.594Z,98.72
2022-09-12T04:33:38.114Z,98.66
2022-09-12T04:38:46.352Z,98.92
2022-09-12T04:43:58.325Z,98.87
2022-09-12T04:49:05.962Z,98.96
2022-09-12T04:54:16.288Z,99.36
2022-09-12T04:59:23.933Z,99.75
2022-09-12T05:04:31.856Z,99.64
2022-09-12T05:09:39.047Z,99.62
2022-09-12T05:14:46.611Z,99.39
2022-09-12T05:19:53.528Z,98.62
2022-09-12T05:24:58.801Z,98.09
2022-09-12T05:30:06.358Z,95.94
2022-09-12T05:35:13.788Z,93.70
2022-09-12T05:40:21.839Z,92.65
2022-09-12T05:45:28.690Z,91.11
2022-09-12T05:50:35.834Z,90.34
2022-09-12T05:55:42.934Z,88.18
2022-09-12T06:00:50.565Z,87.59
2022-09-12T06:05:57.463Z,86.37
2022-09-12T06:11:04.049Z,87.04
2022-09-12T06:16:12.741Z,85.75
2022-09-12T06:21:19.724Z,85.80
2022-09-12T06:26:25.851Z,84.88
2022-09-12T06:31:35.770Z,85.65
2022-09-12T06:36:44.211Z,85.86
2022-09-12T06:41:52.124Z,84.77
2022-09-12T06:46:58.964Z,84.41
2022-09-12T06:52:04.583Z,84.62
2022-09-12T06:57:11.637Z,84.21
2022-09-12T07:02:19.845Z,82.76
2022-09-12T07:07:26.796Z,82.69
2022-09-12T07:12:32.109Z,82.96
2022-09-12T07:17:39.000Z,81.94
2022-09-12T07:22:47.066Z,81.52
2022-09-12T07:27:55.517Z,80.47
2022-09-12T07:33:03.756Z,79.76
2022-09-12T07:38:10.989Z,79.17
2022-09-12T07:43:17.843Z,77.10
2022-09-12T07:48:25.221Z,76.29
2022-09-12T07:53:37.115Z,76.80
2022-09-12T07:58:44.873Z,76.22
2022-09-12T08:03:55.638Z,75.01
2022-09-12T08:09:03.068Z,72.55
2022-09-12T08:14:10.245Z,72.17
2022-09-12T08:19:17.135Z,70.52
2022-09-12T08:24:25.183Z,69.75
2022-09-12T08:29:32.164Z,70.64
2022-09-12T08:34:40.680Z,71.67
2022-09-12T08:39:48.063Z,70.93
2022-09-12T08:45:09.551Z,70.28
2022-09-12T08:50:23.409Z,69.56
2022-09-12T08:55:38.798Z,68.59
2022-09-12T09:00:56.019Z,67.67
2022-09-12T09:06:07.198Z,66.87
2022-09-12T09:11:28.325Z,67.33
2022-09-12T09:16:38.858Z,67.74
2022-09-12T09:21:51.052Z,65.80
2022-09-12T09:27:14.318Z,65.69
2022-09-12T09:32:35.733Z,66.36
2022-09-12T09:38:02.117Z,67.24
2022-09-12T09:43:23.206Z,65.55
2022-09-12T09:48:32.511Z,63.56
2022-09-12T09:53:47.131Z,62.63
2022-09-12T09:58:54.067Z,63.45
2022-09-12T10:04:01.538Z,61.75
2022-09-12T10:09:19.887Z,61.67
2022-09-12T10:14:35.196Z,62.59
2022-09-12T10:19:42.791Z,62.85
2022-09-12T10:24:53.842Z,62.53
2022-09-12T10:30:08.005Z,62.42
2022-09-12T10:45:31.102Z,60.78
2022-09-12T10:50:46.702Z,60.95
2022-09-12T10:56:45.323Z,61.70
2022-09-12T11:02:17.267Z,59.40
2022-09-12T11:07:41.162Z,59.70
2022-09-12T11:13:17.400Z,57.55
2022-09-12T11:18:54.786Z,57.34
2022-09-12T11:30:12.623Z,57.74
2022-09-12T11:35:59.387Z,56.06
2022-09-12T11:41:45.047Z,56.17
2022-09-12T11:46:59.129Z,56.77
2022-09-12T11:52:27.496Z,55.55
2022-09-12T11:57:43.608Z,53.37
2022-09-12T12:03:05.423Z,50.95
2022-09-12T12:08:17.358Z,53.79
2022-09-12T12:13:28.239Z,53.67
2022-09-12T12:18:39.115Z,54.93
2022-09-12T12:24:12.804Z,52.11
2022-09-12T12:29:43.930Z,52.41
2022-09-12T12:34:51.497Z,53.80
2022-09-12T12:40:10.028Z,52.41
2022-09-12T12:45:48.943Z,51.43
2022-09-12T12:51:18.561Z,51.86
2022-09-12T12:56:47.145Z,52.20
2022-09-12T13:01:59.028Z,51.60
2022-09-12T13:07:12.283Z,51.14
2022-09-12T13:12:25.596Z,51.83
2022-09-12T13:17:40.327Z,51.64
2022-09-12T13:22:53.457Z,50.59
2022-09-12T13:36:57.045Z,51.79
2022-09-12T13:42:41.498Z,51.10
2022-09-12T13:47:55.399Z,50.94
2022-09-12T13:53:23.574Z,49.30
2022-09-12T13:58:33.250Z,49.72
2022-09-12T14:04:07.311Z,50.00
2022-09-12T14:09:31.727Z,50.52
2022-09-12T14:14:47.641Z,51.18
2022-09-12T14:20:00.801Z,52.20
2022-09-12T14:25:20.145Z,52.93
2022-09-12T14:30:30.677Z,52.60
2022-09-12T14:35:42.674Z,52.03
2022-09-12T14:40:53.093Z,51.50
2022-09-12T14:46:03.516Z,51.35
2022-09-12T14:51:19.812Z,51.41
2022-09-12T14:56:41.719Z,51.76
2022-09-12T15:01:49.857Z,51.93
2022-09-12T15:06:57.100Z,52.81
2022-09-12T15:12:05.981Z,53.45
2022-09-12T15:17:14.398Z,53.67
2022-09-12T15:22:26.350Z,54.28
2022-09-12T15:27:34.931Z,53.57
2022-09-12T15:32:45.343Z,51.36
2022-09-12T15:37:55.732Z,51.28
2022-09-12T15:43:03.437Z,51.37
2022-09-12T15:48:11.361Z,53.06
2022-09-12T15:53:20.477Z,53.45
2022-09-12T15:58:32.774Z,53.87
2022-09-12T16:03:40.854Z,54.76
2022-09-12T16:08:49.784Z,54.07
2022-09-12T16:14:03.440Z,55.11
2022-09-12T16:19:13.027Z,55.38
2022-09-12T16:24:41.432Z,56.55
2022-09-12T16:29:59.401Z,56.61
2022-09-12T16:35:13.290Z,57.44
2022-09-12T16:40:21.897Z,58.17
2022-09-12T16:45:32.865Z,58.98
2022-09-12T16:50:41.015Z,59.74
2022-09-12T16:55:55.713Z,60.90
2022-09-12T17:01:22.531Z,61.64
2022-09-12T17:12:00.351Z,63.55
2022-09-12T17:17:16.406Z,64.77
2022-09-12T17:22:24.736Z,66.68
2022-09-12T17:27:32.626Z,66.81
2022-09-12T17:32:41.236Z,68.38
2022-09-12T17:38:03.283Z,70.00
2022-09-12T17:43:22.865Z,70.41
2022-09-12T17:48:31.860Z,71.86
2022-09-12T17:53:49.228Z,73.17
2022-09-12T17:59:04.687Z,73.76
2022-09-12T18:04:14.001Z,73.77
2022-09-12T18:09:23.473Z,74.18
2022-09-12T18:14:31.825Z,75.52
2022-09-12T18:19:41.130Z,76.46
2022-09-12T18:30:22.223Z,76.17
2022-09-12T18:35:30.361Z,76.92
2022-09-12T18:40:42.017Z,76.48
2022-09-12T18:45:58.016Z,76.75
2022-09-12T18:51:08.453Z,77.92
2022-09-12T18:56:24.356Z,78.17
2022-09-12T19:02:06.622Z,78.73
2022-09-12T19:07:17.854Z,78.44
2022-09-12T19:12:43.475Z,78.65
2022-09-12T19:18:18.824Z,78.56
2022-09-12T19:23:26.433Z,78.77
2022-09-12T19:28:48.927Z,79.34
2022-09-12T19:34:00.051Z,79.60
2022-09-12T19:39:13.589Z,79.74
2022-09-12T19:44:28.292Z,79.90
2022-09-12T19:56:11.273Z,81.06
2022-09-12T20:01:25.472Z,81.28
2022-09-12T20:06:33.198Z,81.70
2022-09-12T20:11:41.178Z,81.88
2022-09-12T20:16:49.097Z,81.83
2022-09-12T20:21:57.832Z,82.44
2022-09-12T20:27:10.966Z,82.64
2022-09-12T20:32:31.119Z,83.16
2022-09-12T20:37:40.914Z,84.12
2022-09-12T20:42:53.661Z,84.37
2022-09-12T20:48:01.374Z,84.67
2022-09-12T20:53:13.797Z,84.86
2022-09-12T20:58:23.968Z,84.84
2022-09-12T21:03:32.301Z,85.19
2022-09-12T21:08:43.336Z,85.23
2022-09-12T21:13:54.850Z,85.14
2022-09-12T21:19:09.153Z,85.61
2022-09-12T21:24:18.508Z,86.33
2022-09-12T21:29:26.939Z,86.38
2022-09-12T21:34:35.522Z,86.06
2022-09-12T21:39:52.082Z,86.95
2022-09-12T21:45:00.827Z,86.99
2022-09-12T21:50:11.051Z,86.47
2022-09-12T21:55:29.566Z,86.05
2022-09-12T22:06:51.201Z,87.23
2022-09-12T22:11:59.635Z,87.69
2022-09-12T22:17:11.595Z,88.31
2022-09-12T22:22:52.310Z,89.19
2022-09-12T22:28:17.329Z,89.15
2022-09-12T22:33:30.358Z,88.49
2022-09-12T22:38:51.486Z,88.48
2022-09-12T22:44:08.605Z,88.86
2022-09-12T22:49:16.961Z,88.96
2022-09-12T22:54:27.362Z,90.70
2022-09-12T22:59:35.334Z,90.58
2022-09-12T23:04:45.097Z,90.08
2022-09-12T23:09:56.443Z,89.80
2022-09-12T23:15:07.383Z,89.67
2022-09-12T23:20:19.308Z,90.13
2022-09-12T23:25:27.778Z,90.34
2022-09-12T23:30:36.311Z,90.99
2022-09-12T23:35:44.743Z,91.55
2022-09-12T23:46:23.808Z,90.98
2022-09-12T23:51:36.033Z,91.22
2022-09-12T23:56:49.012Z,91.83
